< Typhoon 197213 1972 Season Typhoon 197215 >
Typhoon 197214 (BETTY)
General InformationTrack Information on Google Maps || Disaster Info.ResourceGoogle EarthGE AnimationAtom FeedGeoJSON
Detalied Best Track (Time Zone = UTC)
Year Month Day Hour Lat. Long. Pressure (hPa) Wind (kt) Class Image Chart
1972 8 8 00 9.9 150.0 1008 0 2 -- Chart
1972 8 8 06 10.2 150.4 1006 0 2 -- Chart
1972 8 8 12 10.8 150.4 1006 0 2 -- Chart
1972 8 8 18 11.4 150.0 1004 0 2 -- Chart
1972 8 9 00 11.7 149.6 1003 0 2 -- Chart
1972 8 9 06 12.4 149.2 1000 0 2 -- Chart
1972 8 9 12 12.9 148.5 996 0 9 -- Chart
1972 8 9 18 13.6 148.2 992 0 9 -- Chart
1972 8 10 00 14.4 147.4 990 0 9 -- Chart
1972 8 10 06 15.4 146.5 985 0 9 -- Chart
1972 8 10 12 16.2 145.6 985 0 9 -- Chart
1972 8 10 18 16.8 144.7 985 0 9 -- Chart
1972 8 11 00 17.3 143.6 985 0 9 -- Chart
1972 8 11 06 17.7 142.7 985 0 9 -- Chart
1972 8 11 12 18.1 141.8 985 0 9 -- Chart
1972 8 11 18 18.5 140.8 980 0 9 -- Chart
1972 8 12 00 18.6 139.8 970 0 9 -- Chart
1972 8 12 06 18.6 138.7 960 0 9 -- Chart
1972 8 12 12 18.7 137.3 955 0 9 -- Chart
1972 8 12 18 18.8 136.2 955 0 9 -- Chart
1972 8 13 00 18.8 135.4 945 0 9 -- Chart
1972 8 13 06 18.9 134.6 935 0 9 -- Chart
1972 8 13 12 19.0 133.8 930 0 9 -- Chart
1972 8 13 18 19.2 132.8 920 0 9 -- Chart
1972 8 14 00 19.6 132.0 920 0 9 -- Chart
1972 8 14 06 19.9 131.1 915 0 9 -- Chart
1972 8 14 12 20.3 130.0 920 0 9 -- Chart
1972 8 14 18 20.8 129.0 925 0 9 -- Chart
1972 8 15 00 21.2 127.7 925 0 9 -- Chart
1972 8 15 06 21.4 126.9 915 0 9 -- Chart
1972 8 15 12 22.1 126.7 910 0 9 -- Chart
1972 8 15 18 22.9 125.9 920 0 9 -- Chart
1972 8 16 00 23.7 125.0 925 0 9 -- Chart
1972 8 16 06 24.7 124.2 930 0 9 -- Chart
1972 8 16 12 25.4 123.2 935 0 9 -- Chart
1972 8 16 18 25.8 122.0 935 0 9 -- Chart
1972 8 17 00 26.2 121.0 940 0 9 -- Chart
1972 8 17 06 26.9 120.1 960 0 9 -- Chart
1972 8 17 12 27.4 119.3 980 0 9 -- Chart
1972 8 17 18 28.0 118.4 985 0 9 -- Chart
1972 8 18 00 28.3 117.7 992 0 9 -- Chart
1972 8 18 06 28.3 117.0 994 0 9 -- Chart
1972 8 18 12 28.2 116.3 996 0 9 -- Chart
1972 8 18 18 28.2 115.6 996 0 2 -- Chart
1972 8 19 00 28.0 115.0 998 0 6 -- Chart
1972 8 19 06 27.1 114.0 1000 0 6 -- Chart
Japan Meteorological Agency Best Track Data | Correction Date : 1989-06-01
< Typhoon 197213 1972 Season Typhoon 197215 >

Help